createdAt,value
2022-08-28T00:00:44.899Z,56.90
2022-08-28T00:04:32.635Z,57.20
2022-08-28T00:08:17.046Z,57.10
2022-08-28T00:12:02.122Z,57.10
2022-08-28T00:15:45.006Z,57.40
2022-08-28T00:19:27.399Z,57.30
2022-08-28T00:23:10.365Z,57.40
2022-08-28T00:27:10.982Z,57.40
2022-08-28T00:30:55.675Z,57.50
2022-08-28T00:34:37.603Z,57.60
2022-08-28T00:38:20.361Z,57.60
2022-08-28T00:42:02.549Z,57.80
2022-08-28T00:45:44.819Z,57.90
2022-08-28T00:49:32.608Z,58.10
2022-08-28T00:53:19.557Z,58.30
2022-08-28T00:57:07.856Z,58.50
2022-08-28T01:00:49.987Z,58.60
2022-08-28T01:04:33.545Z,58.40
2022-08-28T01:08:20.324Z,58.60
2022-08-28T01:12:26.321Z,58.60
2022-08-28T01:16:11.059Z,59.10
2022-08-28T01:19:57.164Z,58.80
2022-08-28T01:23:53.401Z,58.90
2022-08-28T01:27:35.240Z,59.70
2022-08-28T01:31:22.442Z,58.90
2022-08-28T01:35:11.225Z,59.00
2022-08-28T01:39:01.709Z,59.20
2022-08-28T01:42:44.541Z,59.80
2022-08-28T01:46:26.470Z,59.20
2022-08-28T01:50:14.799Z,59.20
2022-08-28T01:53:56.681Z,59.40
2022-08-28T01:57:49.557Z,59.40
2022-08-28T02:01:31.443Z,60.70
2022-08-28T02:05:13.289Z,59.60
2022-08-28T02:08:57.987Z,59.70
2022-08-28T02:12:39.776Z,60.00
2022-08-28T02:16:22.216Z,59.90
2022-08-28T02:20:07.460Z,60.10
2022-08-28T02:23:49.350Z,60.60
2022-08-28T02:27:32.198Z,60.30
2022-08-28T02:31:14.146Z,60.50
2022-08-28T02:34:59.034Z,60.60
2022-08-28T02:38:41.000Z,60.70
2022-08-28T02:42:23.223Z,60.90
2022-08-28T02:46:07.320Z,61.00
2022-08-28T02:49:51.202Z,61.10
2022-08-28T02:53:35.799Z,61.20
2022-08-28T02:57:19.986Z,61.30
2022-08-28T03:01:04.930Z,61.50
2022-08-28T03:04:46.820Z,61.60
2022-08-28T03:08:34.521Z,61.80
2022-08-28T03:12:17.123Z,62.20
2022-08-28T03:15:59.186Z,62.00
2022-08-28T03:19:43.126Z,62.20
2022-08-28T03:23:31.415Z,62.40
2022-08-28T03:27:13.223Z,62.50
2022-08-28T03:31:00.629Z,62.60
2022-08-28T03:34:44.850Z,63.00
2022-08-28T03:38:26.922Z,62.90
2022-08-28T03:42:10.217Z,62.80
2022-08-28T03:46:05.644Z,62.90
2022-08-28T03:49:47.527Z,64.10
2022-08-28T03:53:30.111Z,63.00
2022-08-28T03:57:15.700Z,63.20
2022-08-28T04:00:59.854Z,63.30
2022-08-28T04:04:49.115Z,63.70
2022-08-28T04:08:31.024Z,63.70
2022-08-28T04:12:15.208Z,63.60
2022-08-28T04:16:07.858Z,63.80
2022-08-28T04:19:57.999Z,64.80
2022-08-28T04:23:43.258Z,63.90
2022-08-28T04:27:26.265Z,63.60
2022-08-28T04:31:08.718Z,63.70
2022-08-28T04:34:53.035Z,63.80
2022-08-28T04:38:41.572Z,63.80
2022-08-28T04:42:25.903Z,63.80
2022-08-28T04:46:14.040Z,63.80
2022-08-28T04:49:55.919Z,63.80
2022-08-28T04:53:39.768Z,64.00
2022-08-28T04:57:24.145Z,64.10
2022-08-28T05:01:21.132Z,64.20
2022-08-28T05:05:04.294Z,65.60
2022-08-28T05:08:47.967Z,64.30
2022-08-28T05:12:29.762Z,64.40
2022-08-28T05:16:16.061Z,64.50
2022-08-28T05:19:57.914Z,64.70
2022-08-28T05:23:40.198Z,64.80
2022-08-28T05:27:24.374Z,64.90
2022-08-28T05:31:21.139Z,65.00
2022-08-28T05:35:03.662Z,66.10
2022-08-28T05:38:50.403Z,65.20
2022-08-28T05:42:38.396Z,65.30
2022-08-28T05:46:26.113Z,65.40
2022-08-28T05:50:09.796Z,65.80
2022-08-28T05:53:51.574Z,65.10
2022-08-28T05:57:35.746Z,65.20
2022-08-28T06:01:21.533Z,65.20
2022-08-28T06:05:06.494Z,65.10
2022-08-28T06:08:58.575Z,65.10
2022-08-28T06:12:44.797Z,65.10
2022-08-28T06:16:32.103Z,65.00
2022-08-28T06:20:14.057Z,64.90
2022-08-28T06:23:58.124Z,64.90
2022-08-28T06:27:39.958Z,65.20
2022-08-28T06:31:29.741Z,65.20
2022-08-28T06:35:19.094Z,65.30
2022-08-28T06:39:02.591Z,65.30
2022-08-28T06:42:44.442Z,65.20
2022-08-28T06:46:33.199Z,65.10
2022-08-28T06:50:17.340Z,65.30
2022-08-28T06:53:59.184Z,65.10
2022-08-28T06:57:43.211Z,65.10
2022-08-28T07:01:29.858Z,65.10
2022-08-28T07:05:11.937Z,65.10
2022-08-28T07:08:56.254Z,65.00
2022-08-28T07:12:38.037Z,65.00
2022-08-28T07:16:24.253Z,64.90
2022-08-28T07:20:07.244Z,64.80
2022-08-28T07:23:49.215Z,64.70
2022-08-28T07:27:31.521Z,64.60
2022-08-28T07:31:21.403Z,64.60
2022-08-28T07:35:03.417Z,64.60
2022-08-28T07:38:45.662Z,64.60
2022-08-28T07:42:45.933Z,64.70
2022-08-28T07:46:29.180Z,64.80
2022-08-28T07:50:15.193Z,64.70
2022-08-28T07:54:00.479Z,64.60
2022-08-28T07:57:51.900Z,64.40
2022-08-28T08:01:42.528Z,64.70
2022-08-28T08:05:25.426Z,64.50
2022-08-28T08:09:09.742Z,64.40
2022-08-28T08:12:52.418Z,64.40
2022-08-28T08:16:41.060Z,64.50
2022-08-28T08:20:22.970Z,64.50
2022-08-28T08:24:07.861Z,64.30
2022-08-28T08:27:51.436Z,64.30
2022-08-28T08:31:35.902Z,64.00
2022-08-28T08:35:22.099Z,63.90
2022-08-28T08:39:06.548Z,63.80
2022-08-28T08:42:57.024Z,63.60
2022-08-28T08:46:57.897Z,63.60
2022-08-28T08:50:41.862Z,63.50
2022-08-28T08:54:25.459Z,63.20
2022-08-28T08:58:24.384Z,63.10
2022-08-28T09:02:21.084Z,63.10
2022-08-28T09:06:08.234Z,63.00
2022-08-28T09:09:55.450Z,62.90
2022-08-28T09:13:50.835Z,62.90
2022-08-28T09:17:41.338Z,62.70
2022-08-28T09:21:31.362Z,62.60
2022-08-28T09:25:44.845Z,62.40
2022-08-28T09:29:37.562Z,62.20
2022-08-28T09:33:49.521Z,62.20
2022-08-28T09:37:34.326Z,61.90
2022-08-28T09:41:34.783Z,62.00
2022-08-28T09:45:28.522Z,61.80
2022-08-28T09:49:14.556Z,61.50
2022-08-28T09:53:18.238Z,60.70
2022-08-28T09:57:01.563Z,60.60
2022-08-28T10:00:59.447Z,59.50
2022-08-28T10:05:05.415Z,59.30
2022-08-28T10:09:57.885Z,59.00
2022-08-28T10:13:53.186Z,58.30
2022-08-28T10:17:51.759Z,57.20
2022-08-28T10:22:01.330Z,56.50
2022-08-28T10:26:01.353Z,57.90
2022-08-28T10:30:06.813Z,58.20
2022-08-28T10:34:02.541Z,58.00
2022-08-28T10:37:49.994Z,56.90
2022-08-28T10:41:42.664Z,57.60
2022-08-28T10:45:25.647Z,55.90
2022-08-28T10:49:14.443Z,57.00
2022-08-28T10:53:05.457Z,56.60
2022-08-28T10:57:05.666Z,55.20
2022-08-28T11:00:48.069Z,55.30
2022-08-28T11:04:33.057Z,55.90
2022-08-28T11:08:29.747Z,55.70
2022-08-28T11:12:17.429Z,53.90
2022-08-28T11:16:00.540Z,54.20
2022-08-28T11:20:06.282Z,54.80
2022-08-28T11:24:09.212Z,53.20
2022-08-28T11:28:19.152Z,52.20
2022-08-28T11:32:47.267Z,52.80
2022-08-28T11:36:29.874Z,51.40
2022-08-28T11:40:20.359Z,54.30
2022-08-28T11:44:13.898Z,52.70
2022-08-28T11:47:59.083Z,51.90
2022-08-28T11:52:09.442Z,53.60
2022-08-28T11:56:08.799Z,50.60
2022-08-28T12:00:06.239Z,53.10
2022-08-28T12:04:03.844Z,51.50
2022-08-28T12:07:53.812Z,45.60
2022-08-28T12:11:43.157Z,51.00
2022-08-28T12:15:31.233Z,49.10
2022-08-28T12:19:31.024Z,48.90
2022-08-28T12:23:42.900Z,47.50
2022-08-28T12:27:25.601Z,47.20
2022-08-28T12:31:11.841Z,49.60
2022-08-28T12:34:59.689Z,49.20
2022-08-28T12:38:48.861Z,46.90
2022-08-28T12:42:33.287Z,46.70
2022-08-28T12:46:44.146Z,48.10
2022-08-28T12:50:44.231Z,47.40
2022-08-28T12:54:26.013Z,45.10
2022-08-28T12:58:30.689Z,47.50
2022-08-28T13:02:28.229Z,45.30
2022-08-28T13:06:13.678Z,44.20
2022-08-28T13:10:04.654Z,46.30
2022-08-28T13:13:50.111Z,44.40
2022-08-28T13:17:53.105Z,45.40
2022-08-28T13:22:01.778Z,42.90
2022-08-28T13:25:46.085Z,40.40
2022-08-28T13:29:28.387Z,45.00
2022-08-28T13:33:16.687Z,45.10
2022-08-28T13:37:01.910Z,43.90
2022-08-28T13:40:57.905Z,44.80
2022-08-28T13:44:53.787Z,44.50
2022-08-28T13:48:37.014Z,43.20
2022-08-28T13:52:21.246Z,44.50
2022-08-28T13:56:03.471Z,44.60
2022-08-28T13:59:45.262Z,44.40
2022-08-28T14:03:37.762Z,44.50
2022-08-28T14:07:23.496Z,44.60
2022-08-28T14:11:05.603Z,44.50
2022-08-28T14:14:48.763Z,44.70
2022-08-28T14:18:30.550Z,44.80
2022-08-28T14:22:12.401Z,44.60
2022-08-28T14:25:54.407Z,44.70
2022-08-28T14:29:38.064Z,44.60
2022-08-28T14:33:21.716Z,44.50
2022-08-28T14:37:06.276Z,44.40
2022-08-28T14:40:48.100Z,44.40
2022-08-28T14:44:29.891Z,44.30
2022-08-28T14:48:12.029Z,44.10
2022-08-28T14:51:57.327Z,44.10
2022-08-28T14:55:41.212Z,43.80
2022-08-28T14:59:28.746Z,43.70
2022-08-28T15:03:12.051Z,42.80
2022-08-28T15:07:01.822Z,43.50
2022-08-28T15:10:47.340Z,42.50
2022-08-28T15:14:29.214Z,43.40
2022-08-28T15:18:16.918Z,43.10
2022-08-28T15:22:06.249Z,42.60
2022-08-28T15:25:55.742Z,43.40
2022-08-28T15:29:40.283Z,43.30
2022-08-28T15:33:24.873Z,43.00
2022-08-28T15:37:07.825Z,42.30
2022-08-28T15:41:08.415Z,41.70
2022-08-28T15:44:50.231Z,40.90
2022-08-28T15:48:32.366Z,41.00
2022-08-28T15:52:15.506Z,40.60
2022-08-28T15:56:03.401Z,40.00
2022-08-28T15:59:49.668Z,40.30
2022-08-28T16:03:32.774Z,40.60
2022-08-28T16:07:17.460Z,40.60
2022-08-28T16:11:07.739Z,41.10
2022-08-28T16:14:51.734Z,41.10
2022-08-28T16:18:38.681Z,40.90
2022-08-28T16:22:23.606Z,40.40
2022-08-28T16:26:07.611Z,40.70
2022-08-28T16:29:52.803Z,40.70
2022-08-28T16:33:35.858Z,40.20
2022-08-28T16:37:23.586Z,40.10
2022-08-28T16:41:16.187Z,39.90
2022-08-28T16:44:59.747Z,38.70
2022-08-28T16:48:43.908Z,39.30
2022-08-28T16:52:28.533Z,39.10
2022-08-28T16:56:12.908Z,39.10
2022-08-28T16:59:55.423Z,38.80
2022-08-28T17:03:37.502Z,38.90
2022-08-28T17:07:19.603Z,38.70
2022-08-28T17:11:01.606Z,38.20
2022-08-28T17:14:43.493Z,38.20
2022-08-28T17:18:25.271Z,38.30
2022-08-28T17:22:27.367Z,38.30
2022-08-28T17:26:09.509Z,37.90
2022-08-28T17:29:51.451Z,37.90
2022-08-28T17:33:38.089Z,37.80
2022-08-28T17:37:20.817Z,37.60
2022-08-28T17:41:06.497Z,37.70
2022-08-28T17:44:51.150Z,37.80
2022-08-28T17:48:40.334Z,38.30
2022-08-28T17:52:22.955Z,38.70
2022-08-28T17:56:06.318Z,38.90
2022-08-28T17:59:48.107Z,39.10
2022-08-28T18:03:31.230Z,39.20
2022-08-28T18:07:23.662Z,39.40
2022-08-28T18:11:06.485Z,39.50
2022-08-28T18:14:50.738Z,39.70
2022-08-28T18:18:36.454Z,39.90
2022-08-28T18:22:20.914Z,40.20
2022-08-28T18:26:04.545Z,40.60
2022-08-28T18:29:46.507Z,41.20
2022-08-28T18:33:31.661Z,41.70
2022-08-28T18:37:13.521Z,42.10
2022-08-28T18:41:06.660Z,42.50
2022-08-28T18:44:48.486Z,44.60
2022-08-28T18:48:32.070Z,43.40
2022-08-28T18:52:14.018Z,43.80
2022-08-28T18:55:57.289Z,44.00
2022-08-28T18:59:46.846Z,44.30
2022-08-28T19:03:29.774Z,45.00
2022-08-28T19:07:15.294Z,44.80
2022-08-28T19:11:01.074Z,45.60
2022-08-28T19:14:42.889Z,45.50
2022-08-28T19:18:24.785Z,45.50
2022-08-28T19:22:06.613Z,45.70
2022-08-28T19:25:48.930Z,46.00
2022-08-28T19:29:33.181Z,46.10
2022-08-28T19:33:17.365Z,46.30
2022-08-28T19:37:09.291Z,46.40
2022-08-28T19:40:53.322Z,47.90
2022-08-28T19:44:38.213Z,47.10
2022-08-28T19:48:22.704Z,47.40
2022-08-28T19:52:08.231Z,47.30
2022-08-28T19:55:50.124Z,47.50
2022-08-28T19:59:32.630Z,47.60
2022-08-28T20:03:17.075Z,47.60
2022-08-28T20:07:00.565Z,47.50
2022-08-28T20:10:43.698Z,47.50
2022-08-28T20:14:31.087Z,47.40
2022-08-28T20:18:13.333Z,47.60
2022-08-28T20:21:55.782Z,47.30
2022-08-28T20:25:39.870Z,47.30
2022-08-28T20:29:21.868Z,47.40
2022-08-28T20:33:03.744Z,47.40
2022-08-28T20:36:52.163Z,47.40
2022-08-28T20:40:34.076Z,47.40
2022-08-28T20:44:22.318Z,47.40
2022-08-28T20:48:04.283Z,47.70
2022-08-28T20:51:58.897Z,47.70
2022-08-28T20:55:43.789Z,47.70
2022-08-28T20:59:39.714Z,47.70
2022-08-28T21:03:25.250Z,47.90
2022-08-28T21:07:10.570Z,48.20
2022-08-28T21:10:54.648Z,48.70
2022-08-28T21:14:38.718Z,49.50
2022-08-28T21:18:22.835Z,49.80
2022-08-28T21:22:07.086Z,50.00
2022-08-28T21:25:49.218Z,50.30
2022-08-28T21:29:31.286Z,50.60
2022-08-28T21:33:13.354Z,50.80
2022-08-28T21:36:57.359Z,51.20
2022-08-28T21:40:41.708Z,51.50
2022-08-28T21:44:23.846Z,52.10
2022-08-28T21:48:06.246Z,51.90
2022-08-28T21:51:48.099Z,52.10
2022-08-28T21:55:29.943Z,52.30
2022-08-28T21:59:11.967Z,52.40
2022-08-28T22:02:53.812Z,52.60
2022-08-28T22:06:35.796Z,52.70
2022-08-28T22:10:18.674Z,52.90
2022-08-28T22:14:01.174Z,53.00
2022-08-28T22:17:42.979Z,53.20
2022-08-28T22:21:48.078Z,53.30
2022-08-28T22:25:29.917Z,53.40
2022-08-28T22:29:15.035Z,53.40
2022-08-28T22:32:57.488Z,53.50
2022-08-28T22:36:39.851Z,53.50
2022-08-28T22:40:22.756Z,53.40
2022-08-28T22:44:05.774Z,53.40
2022-08-28T22:47:49.683Z,53.30
2022-08-28T22:51:34.302Z,53.30
2022-08-28T22:55:20.390Z,53.30
2022-08-28T22:59:04.658Z,53.20
2022-08-28T23:02:47.512Z,53.30
2022-08-28T23:06:30.534Z,53.20
2022-08-28T23:10:13.430Z,53.30
2022-08-28T23:13:55.198Z,53.20
2022-08-28T23:17:37.077Z,53.20
2022-08-28T23:21:20.584Z,53.10
2022-08-28T23:25:05.986Z,53.10
2022-08-28T23:28:48.263Z,53.10
2022-08-28T23:32:33.739Z,52.90
2022-08-28T23:36:16.275Z,52.80
2022-08-28T23:40:00.723Z,52.80
2022-08-28T23:43:42.614Z,52.80
2022-08-28T23:47:26.494Z,52.70
2022-08-28T23:51:10.031Z,52.70
2022-08-28T23:54:54.227Z,52.80
2022-08-28T23:58:36.686Z,52.70
